Time;durP1;ratioP1;P1;durP2;ratioP2;P2;SDS_P1;SDS_P2;PMS_P1;PMS_P2;Temp;Humidity;BMP_temperature;BMP_pressure;BME280_temperature;BME280_humidity;BME280_pressure;Samples;Min_cycle;Max_cycle;Signal;HPM_P1;HPM_P2
2022/08/07 00:01:24;;;;;;;1.07;0.93;;;;;;;;;;5096152;28;20779;-86
2022/08/07 00:03:51;;;;;;;3.33;0.70;;;;;;;;;;5095828;28;20247;-85
2022/08/07 00:06:18;;;;;;;0.80;0.80;;;;;;;;;;5096944;28;20254;-85
2022/08/07 00:08:45;;;;;;;0.93;0.87;;;;;;;;;;5095720;28;20236;-85
2022/08/07 00:11:13;;;;;;;0.80;0.77;;;;;;;;;;5096400;28;20228;-85
2022/08/07 00:13:43;;;;;;;0.93;0.93;;;;;;;;;;5095907;28;20233;-85
2022/08/07 00:16:11;;;;;;;0.90;0.90;;;;;;;;;;5096482;28;20284;-85
2022/08/07 00:18:39;;;;;;;1.50;0.90;;;;;;;;;;5095379;28;20236;-85
2022/08/07 00:21:07;;;;;;;1.07;1.00;;;;;;;;;;5097550;28;20232;-85
2022/08/07 00:23:35;;;;;;;0.97;0.97;;;;;;;;;;5095846;28;20286;-84
2022/08/07 00:26:04;;;;;;;0.67;0.67;;;;;;;;;;5096830;28;20200;-85
2022/08/07 00:28:31;;;;;;;0.90;0.90;;;;;;;;;;5095146;28;20767;-85
2022/08/07 00:30:58;;;;;;;1.20;1.10;;;;;;;;;;5096811;28;20225;-84
2022/08/07 00:33:27;;;;;;;0.80;0.80;;;;;;;;;;5095392;28;20236;-85
2022/08/07 00:35:54;;;;;;;1.50;0.90;;;;;;;;;;5096423;28;20242;-84
2022/08/07 00:38:21;;;;;;;1.13;1.03;;;;;;;;;;5095295;28;20241;-85
2022/08/07 00:40:48;;;;;;;0.77;0.77;;;;;;;;;;5095715;28;20221;-85
2022/08/07 00:43:15;;;;;;;0.90;0.90;;;;;;;;;;5097088;28;20233;-84
2022/08/07 00:45:43;;;;;;;1.60;1.00;;;;;;;;;;5096303;28;20196;-85
2022/08/07 00:48:10;;;;;;;0.87;0.87;;;;;;;;;;5095757;28;20228;-85
2022/08/07 00:50:39;;;;;;;1.27;0.93;;;;;;;;;;5095951;28;20228;-85
2022/08/07 00:53:07;;;;;;;0.90;0.90;;;;;;;;;;5095504;28;20243;-84
2022/08/07 00:55:34;;;;;;;1.63;1.20;;;;;;;;;;5095706;28;20212;-85
2022/08/07 00:58:01;;;;;;;0.90;0.90;;;;;;;;;;5094214;28;20240;-84
2022/08/07 01:00:28;;;;;;;2.17;0.87;;;;;;;;;;5094912;28;20274;-85
2022/08/07 01:02:55;;;;;;;0.90;0.90;;;;;;;;;;5094426;28;20324;-85
2022/08/07 01:05:23;;;;;;;1.33;1.10;;;;;;;;;;5093217;28;20569;-85
2022/08/07 01:07:51;;;;;;;1.47;0.90;;;;;;;;;;5094304;28;20229;-84
2022/08/07 01:10:19;;;;;;;1.10;1.00;;;;;;;;;;5094846;28;20236;-84
2022/08/07 01:12:46;;;;;;;1.30;1.00;;;;;;;;;;5094439;28;20239;-84
2022/08/07 01:15:13;;;;;;;1.33;0.90;;;;;;;;;;5094818;28;20236;-84
2022/08/07 01:17:41;;;;;;;0.90;0.90;;;;;;;;;;5093905;28;20237;-84
2022/08/07 01:20:10;;;;;;;1.73;1.07;;;;;;;;;;5094915;28;20221;-84
2022/08/07 01:22:39;;;;;;;2.77;1.13;;;;;;;;;;5093539;28;20232;-85
2022/08/07 01:25:07;;;;;;;0.90;0.90;;;;;;;;;;5094754;28;20291;-84
2022/08/07 01:27:34;;;;;;;0.90;0.90;;;;;;;;;;5094232;28;20236;-84
2022/08/07 01:30:01;;;;;;;2.57;0.97;;;;;;;;;;5094659;28;20243;-84
2022/08/07 01:32:28;;;;;;;0.90;0.87;;;;;;;;;;5093881;28;20228;-84
2022/08/07 01:34:55;;;;;;;3.33;1.30;;;;;;;;;;5094609;28;20691;-86
2022/08/07 01:37:22;;;;;;;2.20;1.10;;;;;;;;;;5093765;28;20690;-84
2022/08/07 01:39:51;;;;;;;0.90;0.90;;;;;;;;;;5095281;28;20234;-84
2022/08/07 01:42:18;;;;;;;0.93;0.93;;;;;;;;;;5097428;28;20228;-83
2022/08/07 01:44:46;;;;;;;1.03;1.03;;;;;;;;;;5098698;28;20204;-84
2022/08/07 01:47:13;;;;;;;1.27;0.90;;;;;;;;;;5097955;28;20259;-84
2022/08/07 01:49:40;;;;;;;1.20;1.10;;;;;;;;;;5098920;28;20271;-84
2022/08/07 01:52:09;;;;;;;1.00;0.97;;;;;;;;;;5098275;28;20228;-84
2022/08/07 01:54:38;;;;;;;0.97;0.97;;;;;;;;;;5096648;28;20207;-84
2022/08/07 01:57:08;;;;;;;2.27;1.17;;;;;;;;;;5093831;28;20224;-84
2022/08/07 01:59:37;;;;;;;1.17;1.17;;;;;;;;;;5094185;28;20208;-84
2022/08/07 02:02:07;;;;;;;3.33;2.73;;;;;;;;;;5061106;22;20234;-79
2022/08/07 02:04:39;;;;;;;0.90;0.90;;;;;;;;;;5029093;28;20205;-81
2022/08/07 02:07:07;;;;;;;1.37;1.27;;;;;;;;;;5022566;28;20235;-79
2022/08/07 02:09:34;;;;;;;1.97;1.17;;;;;;;;;;5014475;28;20207;-79
2022/08/07 02:12:15;;;;;;;2.73;1.00;;;;;;;;;;5013419;28;20239;-78
2022/08/07 02:14:44;;;;;;;1.20;1.10;;;;;;;;;;5014121;28;20544;-78
2022/08/07 02:17:13;;;;;;;1.37;1.27;;;;;;;;;;5013294;28;20658;-79
2022/08/07 02:19:42;;;;;;;1.17;1.07;;;;;;;;;;5013981;28;20208;-79
2022/08/07 02:22:11;;;;;;;1.10;1.00;;;;;;;;;;5016856;28;20753;-81
2022/08/07 02:24:39;;;;;;;1.40;1.30;;;;;;;;;;5027521;28;20276;-82
2022/08/07 02:27:07;;;;;;;1.07;1.07;;;;;;;;;;5022163;28;20231;-80
2022/08/07 02:29:35;;;;;;;0.93;0.93;;;;;;;;;;5019057;28;20195;-81
2022/08/07 02:32:05;;;;;;;1.23;1.00;;;;;;;;;;5021798;28;20234;-81
2022/08/07 02:34:33;;;;;;;1.80;0.90;;;;;;;;;;5039033;28;20211;-81
2022/08/07 02:37:02;;;;;;;2.93;1.37;;;;;;;;;;5037467;28;20234;-80
2022/08/07 02:39:30;;;;;;;2.20;1.20;;;;;;;;;;5038206;28;20714;-81
2022/08/07 02:41:57;;;;;;;1.57;1.10;;;;;;;;;;5037644;28;20234;-81
2022/08/07 02:44:26;;;;;;;1.33;1.10;;;;;;;;;;5037922;28;20206;-81
2022/08/07 02:46:54;;;;;;;1.77;1.50;;;;;;;;;;5037407;28;20777;-84
2022/08/07 02:49:23;;;;;;;2.00;1.17;;;;;;;;;;5037403;28;20257;-82
2022/08/07 02:51:50;;;;;;;1.10;1.10;;;;;;;;;;5037942;28;20233;-81
2022/08/07 02:54:18;;;;;;;1.30;1.20;;;;;;;;;;5038121;28;20211;-83
2022/08/07 02:56:47;;;;;;;1.70;1.30;;;;;;;;;;5038201;28;20293;-81
2022/08/07 02:59:17;;;;;;;1.40;1.30;;;;;;;;;;5037462;28;20230;-82
2022/08/07 03:01:45;;;;;;;0.97;0.97;;;;;;;;;;5039899;28;20249;-81
2022/08/07 03:04:13;;;;;;;1.50;1.20;;;;;;;;;;5043210;28;20206;-83
2022/08/07 03:06:42;;;;;;;2.30;1.40;;;;;;;;;;5040266;28;20202;-81
2022/08/07 03:09:09;;;;;;;1.10;1.10;;;;;;;;;;5040293;28;20202;-81
2022/08/07 03:11:37;;;;;;;2.00;1.30;;;;;;;;;;5038159;28;20233;-81
2022/08/07 03:14:05;;;;;;;1.33;1.30;;;;;;;;;;5038340;28;20218;-81
2022/08/07 03:16:33;;;;;;;2.40;1.40;;;;;;;;;;5038380;28;20207;-82
2022/08/07 03:19:00;;;;;;;1.30;1.20;;;;;;;;;;5038303;28;20219;-81
2022/08/07 03:21:28;;;;;;;1.40;1.20;;;;;;;;;;5038135;28;20215;-81
2022/08/07 03:23:57;;;;;;;1.37;1.27;;;;;;;;;;5037392;28;20234;-81
2022/08/07 03:26:26;;;;;;;1.60;1.50;;;;;;;;;;5045926;28;20206;-81
2022/08/07 03:28:54;;;;;;;1.30;1.30;;;;;;;;;;5032633;28;20234;-82
2022/08/07 03:31:22;;;;;;;3.70;1.40;;;;;;;;;;5037365;28;20218;-81
2022/08/07 03:33:51;;;;;;;1.50;1.30;;;;;;;;;;5032285;28;20242;-81
2022/08/07 03:36:19;;;;;;;1.37;1.30;;;;;;;;;;5033054;28;20237;-82
2022/08/07 03:38:48;;;;;;;1.20;1.20;;;;;;;;;;5032887;28;20760;-81
2022/08/07 03:41:17;;;;;;;1.30;1.30;;;;;;;;;;5033792;28;20223;-81
2022/08/07 03:43:44;;;;;;;1.90;1.13;;;;;;;;;;5033271;28;20234;-81
2022/08/07 03:46:12;;;;;;;1.57;1.37;;;;;;;;;;5033847;28;20206;-81
2022/08/07 03:48:40;;;;;;;2.13;1.10;;;;;;;;;;5033686;28;20237;-83
2022/08/07 03:51:08;;;;;;;1.30;1.30;;;;;;;;;;5034623;28;20771;-84
2022/08/07 03:53:35;;;;;;;2.20;1.50;;;;;;;;;;5034176;28;20262;-83
2022/08/07 03:56:02;;;;;;;1.30;1.20;;;;;;;;;;5034158;28;20218;-81
2022/08/07 03:58:31;;;;;;;1.40;1.30;;;;;;;;;;5034346;28;20702;-82
2022/08/07 04:00:59;;;;;;;2.67;1.37;;;;;;;;;;5035565;28;20235;-81
2022/08/07 04:03:26;;;;;;;1.30;1.20;;;;;;;;;;5038497;28;20241;-81
2022/08/07 04:05:54;;;;;;;3.17;1.30;;;;;;;;;;5038920;28;20203;-84
2022/08/07 04:08:21;;;;;;;1.20;1.20;;;;;;;;;;5038418;28;20245;-81
2022/08/07 04:10:48;;;;;;;1.50;1.10;;;;;;;;;;5039287;28;20237;-82
2022/08/07 04:13:16;;;;;;;1.30;1.30;;;;;;;;;;5038707;28;20273;-81
2022/08/07 04:15:45;;;;;;;1.50;1.40;;;;;;;;;;5039875;28;20206;-81
2022/08/07 04:18:13;;;;;;;1.50;1.33;;;;;;;;;;5038382;28;20242;-84
2022/08/07 04:20:40;;;;;;;1.37;1.27;;;;;;;;;;5038614;28;20285;-82
2022/08/07 04:23:08;;;;;;;2.00;1.20;;;;;;;;;;5038750;28;20266;-81
2022/08/07 04:25:37;;;;;;;1.13;1.10;;;;;;;;;;5038803;28;20207;-81
2022/08/07 04:28:05;;;;;;;1.40;1.30;;;;;;;;;;5038348;28;20764;-81
2022/08/07 04:30:32;;;;;;;1.70;1.60;;;;;;;;;;5039176;28;20234;-81
2022/08/07 04:33:01;;;;;;;1.30;1.30;;;;;;;;;;5038635;28;20230;-81
2022/08/07 04:35:28;;;;;;;1.10;1.10;;;;;;;;;;5039206;28;20199;-81
2022/08/07 04:37:55;;;;;;;1.30;1.20;;;;;;;;;;5038759;28;20234;-81
2022/08/07 04:40:22;;;;;;;1.27;1.27;;;;;;;;;;5039908;28;20306;-81
2022/08/07 04:42:50;;;;;;;1.40;1.30;;;;;;;;;;5038447;28;20235;-81
2022/08/07 04:45:17;;;;;;;1.60;1.50;;;;;;;;;;5038781;28;20270;-83
2022/08/07 04:47:51;;;;;;;1.63;1.33;;;;;;;;;;5038456;28;20722;-81
2022/08/07 04:50:26;;;;;;;1.30;1.30;;;;;;;;;;5039676;28;20238;-81
2022/08/07 04:52:57;;;;;;;1.50;1.40;;;;;;;;;;5039410;28;20238;-80
2022/08/07 04:55:27;;;;;;;1.60;1.37;;;;;;;;;;5039141;28;20183;-81
2022/08/07 04:57:59;;;;;;;1.80;1.50;;;;;;;;;;5038517;28;20231;-81
2022/08/07 05:00:41;;;;;;;1.60;1.30;;;;;;;;;;5039701;28;20235;-81
2022/08/07 05:03:13;;;;;;;1.50;1.40;;;;;;;;;;5039974;28;20280;-81
2022/08/07 05:05:46;;;;;;;1.73;1.50;;;;;;;;;;5040040;28;20250;-81
2022/08/07 05:08:15;;;;;;;1.23;1.10;;;;;;;;;;5039862;28;20694;-81
2022/08/07 05:10:46;;;;;;;1.47;1.40;;;;;;;;;;5040075;28;20667;-81
2022/08/07 05:13:16;;;;;;;2.43;1.93;;;;;;;;;;5039117;28;20235;-81
2022/08/07 05:15:46;;;;;;;2.00;1.47;;;;;;;;;;5039285;28;20183;-82
2022/08/07 05:18:19;;;;;;;5.70;1.50;;;;;;;;;;5038924;28;20238;-81
2022/08/07 05:20:50;;;;;;;3.33;1.40;;;;;;;;;;5039408;28;20223;-81
2022/08/07 05:23:18;;;;;;;3.43;1.47;;;;;;;;;;5039553;28;20312;-81
2022/08/07 05:25:46;;;;;;;3.87;1.50;;;;;;;;;;5040927;28;20210;-81
2022/08/07 05:28:15;;;;;;;1.20;1.10;;;;;;;;;;5042116;28;20239;-81
2022/08/07 05:30:42;;;;;;;4.13;1.23;;;;;;;;;;5040038;28;20226;-82
2022/08/07 05:33:10;;;;;;;2.87;1.50;;;;;;;;;;5039607;28;20238;-80
2022/08/07 05:35:37;;;;;;;2.47;1.37;;;;;;;;;;5038299;28;20214;-81
2022/08/07 05:38:06;;;;;;;2.97;1.27;;;;;;;;;;5040118;28;20262;-81
2022/08/07 05:40:34;;;;;;;1.47;1.17;;;;;;;;;;5038676;28;20226;-81
2022/08/07 05:43:02;;;;;;;1.40;1.30;;;;;;;;;;5038723;28;20230;-81
2022/08/07 05:45:29;;;;;;;1.37;1.27;;;;;;;;;;5038675;28;20195;-81
2022/08/07 05:47:56;;;;;;;1.27;1.17;;;;;;;;;;5038699;28;20238;-80
2022/08/07 05:50:24;;;;;;;5.93;1.73;;;;;;;;;;5038113;28;20219;-81
2022/08/07 05:52:51;;;;;;;2.70;1.30;;;;;;;;;;5038536;28;20243;-83
2022/08/07 05:55:20;;;;;;;1.20;1.20;;;;;;;;;;5037690;28;20206;-81
2022/08/07 05:57:47;;;;;;;1.43;1.07;;;;;;;;;;5038133;28;20231;-81
2022/08/07 06:00:15;;;;;;;2.67;1.20;;;;;;;;;;5038252;28;20233;-81
2022/08/07 06:02:45;;;;;;;1.07;1.07;;;;;;;;;;5036988;28;20241;-80
2022/08/07 06:05:13;;;;;;;4.13;1.10;;;;;;;;;;5035703;28;20195;-79
2022/08/07 06:07:41;;;;;;;6.53;1.30;;;;;;;;;;5034767;28;20230;-79
2022/08/07 06:10:09;;;;;;;1.80;0.90;;;;;;;;;;5036701;28;20202;-80
2022/08/07 06:12:38;;;;;;;2.23;1.27;;;;;;;;;;5035331;28;20234;-79
2022/08/07 06:15:06;;;;;;;1.13;1.13;;;;;;;;;;5037290;28;20203;-79
2022/08/07 06:17:33;;;;;;;2.07;0.80;;;;;;;;;;5037274;28;20231;-79
2022/08/07 06:20:00;;;;;;;1.00;0.90;;;;;;;;;;5036434;28;20226;-79
2022/08/07 06:22:27;;;;;;;1.67;0.90;;;;;;;;;;5034959;28;20230;-79
2022/08/07 06:24:54;;;;;;;0.77;0.70;;;;;;;;;;5034182;28;20213;-79
2022/08/07 06:27:22;;;;;;;0.90;0.80;;;;;;;;;;5032952;28;20837;-80
2022/08/07 06:29:51;;;;;;;3.43;1.10;;;;;;;;;;5033289;28;20199;-79
2022/08/07 06:32:18;;;;;;;1.87;0.90;;;;;;;;;;5032359;28;20696;-82
2022/08/07 06:34:45;;;;;;;0.87;0.87;;;;;;;;;;5033223;28;20217;-79
2022/08/07 06:37:12;;;;;;;1.03;0.70;;;;;;;;;;5033923;28;20238;-79
2022/08/07 06:39:39;;;;;;;2.27;0.97;;;;;;;;;;5035225;28;20222;-80
2022/08/07 06:42:07;;;;;;;1.63;0.70;;;;;;;;;;5034827;28;20234;-79
2022/08/07 06:44:35;;;;;;;2.73;0.70;;;;;;;;;;5034778;28;20261;-80
2022/08/07 06:47:04;;;;;;;1.17;0.90;;;;;;;;;;5034655;28;20237;-80
2022/08/07 06:49:31;;;;;;;0.77;0.77;;;;;;;;;;5015432;28;20201;-79
2022/08/07 06:51:59;;;;;;;1.07;0.70;;;;;;;;;;5014791;28;20754;-81
2022/08/07 06:54:27;;;;;;;4.67;0.90;;;;;;;;;;5015038;28;20218;-80
2022/08/07 06:56:55;;;;;;;0.73;0.70;;;;;;;;;;5015846;28;20281;-80
2022/08/07 06:59:24;;;;;;;0.70;0.70;;;;;;;;;;5015818;28;20231;-80
2022/08/07 07:01:51;;;;;;;1.50;0.77;;;;;;;;;;5014857;28;20239;-80
2022/08/07 07:04:21;;;;;;;1.23;0.80;;;;;;;;;;5016595;28;20231;-78
2022/08/07 07:06:48;;;;;;;0.57;0.50;;;;;;;;;;5012214;28;20215;-77
2022/08/07 07:09:19;;;;;;;0.73;0.70;;;;;;;;;;5012485;28;20211;-78
2022/08/07 07:11:52;;;;;;;1.95;0.70;;;;;;;;;;5014859;28;20215;-77
2022/08/07 07:14:22;;;;;;;1.50;0.57;;;;;;;;;;5032661;28;20202;-76
2022/08/07 07:16:51;;;;;;;1.77;0.60;;;;;;;;;;5032033;28;20211;-75
2022/08/07 07:19:20;;;;;;;0.50;0.50;;;;;;;;;;5024249;28;20223;-75
2022/08/07 07:21:51;;;;;;;1.88;0.50;;;;;;;;;;5024287;28;20216;-75
2022/08/07 07:24:18;;;;;;;0.85;0.73;;;;;;;;;;5017642;28;20245;-75
2022/08/07 07:26:46;;;;;;;0.50;0.50;;;;;;;;;;5024977;28;20203;-77
2022/08/07 07:29:15;;;;;;;0.50;0.45;;;;;;;;;;5014963;28;20199;-77
2022/08/07 07:31:44;;;;;;;1.85;0.50;;;;;;;;;;5026836;28;20273;-76
2022/08/07 07:34:13;;;;;;;0.77;0.45;;;;;;;;;;5031762;28;20667;-77
2022/08/07 07:36:42;;;;;;;0.50;0.50;;;;;;;;;;5032591;28;20210;-76
2022/08/07 07:39:11;;;;;;;0.68;0.50;;;;;;;;;;5016032;28;20214;-76
2022/08/07 07:41:41;;;;;;;0.80;0.50;;;;;;;;;;5034216;28;20230;-76
2022/08/07 07:44:10;;;;;;;0.50;0.47;;;;;;;;;;5029141;28;20199;-77
2022/08/07 07:46:38;;;;;;;0.55;0.55;;;;;;;;;;5036182;28;20194;-77
2022/08/07 07:49:05;;;;;;;1.25;0.50;;;;;;;;;;5030753;28;20203;-77
2022/08/07 07:51:32;;;;;;;0.47;0.47;;;;;;;;;;5034767;28;20230;-77
2022/08/07 07:54:00;;;;;;;1.30;0.70;;;;;;;;;;5034269;28;20203;-77
2022/08/07 07:56:29;;;;;;;1.67;0.45;;;;;;;;;;5016433;28;20214;-77
2022/08/07 07:58:58;;;;;;;0.47;0.47;;;;;;;;;;5020748;28;20226;-77
2022/08/07 08:01:25;;;;;;;0.30;0.30;;;;;;;;;;5047977;28;20226;-77
2022/08/07 08:03:54;;;;;;;0.40;0.40;;;;;;;;;;5056191;28;20241;-79
2022/08/07 08:06:21;;;;;;;0.38;0.38;;;;;;;;;;5054261;28;20342;-78
2022/08/07 08:08:49;;;;;;;0.68;0.45;;;;;;;;;;5066918;28;20234;-77
2022/08/07 08:11:16;;;;;;;0.68;0.40;;;;;;;;;;5063753;28;20291;-78
2022/08/07 08:13:46;;;;;;;0.63;0.40;;;;;;;;;;5063024;28;20264;-78
2022/08/07 08:16:15;;;;;;;1.50;0.40;;;;;;;;;;5062758;28;20271;-78
2022/08/07 08:18:43;;;;;;;0.35;0.35;;;;;;;;;;5060324;28;20252;-78
2022/08/07 08:27:03;;;;;;;1.95;0.73;;;;;;;;;;5061182;28;20233;-78
2022/08/07 08:29:31;;;;;;;0.77;0.55;;;;;;;;;;5060156;28;20289;-78
2022/08/07 08:31:59;;;;;;;0.60;0.55;;;;;;;;;;5058115;28;20237;-78
2022/08/07 08:34:26;;;;;;;1.20;0.70;;;;;;;;;;5058517;28;20198;-78
2022/08/07 08:36:53;;;;;;;0.70;0.50;;;;;;;;;;5056232;28;20230;-78
2022/08/07 08:39:21;;;;;;;1.85;0.60;;;;;;;;;;5059601;28;20205;-78
2022/08/07 08:41:50;;;;;;;1.02;0.50;;;;;;;;;;5048952;28;20226;-79
2022/08/07 08:44:19;;;;;;;0.40;0.40;;;;;;;;;;5041524;28;20206;-79
2022/08/07 08:46:51;;;;;;;0.47;0.30;;;;;;;;;;5040586;28;20214;-79
2022/08/07 08:49:21;;;;;;;0.52;0.52;;;;;;;;;;5035550;28;20191;-79
2022/08/07 08:51:56;;;;;;;0.40;0.40;;;;;;;;;;5036076;28;20257;-79
2022/08/07 08:54:25;;;;;;;0.77;0.45;;;;;;;;;;5036338;28;20209;-79
2022/08/07 08:56:53;;;;;;;0.65;0.57;;;;;;;;;;5036989;28;20242;-78
2022/08/07 08:59:22;;;;;;;0.57;0.30;;;;;;;;;;5036762;28;20210;-79
2022/08/07 09:01:56;;;;;;;0.98;0.45;;;;;;;;;;5019382;28;20281;-78
2022/08/07 09:04:27;;;;;;;0.40;0.40;;;;;;;;;;5016649;28;20619;-79
2022/08/07 09:06:59;;;;;;;0.65;0.40;;;;;;;;;;5018193;28;20234;-79
2022/08/07 09:09:36;;;;;;;1.05;0.57;;;;;;;;;;5036571;28;20198;-79
2022/08/07 09:12:06;;;;;;;0.65;0.60;;;;;;;;;;5035776;28;20272;-80
2022/08/07 09:14:37;;;;;;;0.65;0.40;;;;;;;;;;5036143;28;20750;-80
2022/08/07 09:17:10;;;;;;;3.72;0.75;;;;;;;;;;5035219;28;20241;-80
2022/08/07 09:19:49;;;;;;;0.80;0.70;;;;;;;;;;5036221;28;20203;-81
2022/08/07 09:22:22;;;;;;;0.68;0.60;;;;;;;;;;5035254;28;20234;-80
2022/08/07 09:24:57;;;;;;;0.30;0.30;;;;;;;;;;5036570;28;20222;-79
2022/08/07 09:27:29;;;;;;;2.33;1.08;;;;;;;;;;5036355;28;20241;-80
2022/08/07 09:29:58;;;;;;;1.55;0.50;;;;;;;;;;5040586;28;20238;-80
2022/08/07 09:32:32;;;;;;;0.43;0.43;;;;;;;;;;5036490;28;20230;-79
2022/08/07 09:35:06;;;;;;;0.80;0.70;;;;;;;;;;5035802;28;20199;-79
2022/08/07 09:37:37;;;;;;;0.40;0.40;;;;;;;;;;5034793;28;20598;-79
2022/08/07 09:40:07;;;;;;;0.50;0.50;;;;;;;;;;5035543;28;20578;-79
2022/08/07 09:42:41;;;;;;;0.82;0.57;;;;;;;;;;5034655;28;20234;-79
2022/08/07 09:45:11;;;;;;;0.65;0.60;;;;;;;;;;5035497;28;20256;-79
2022/08/07 09:47:45;;;;;;;4.18;0.70;;;;;;;;;;5035257;28;20226;-79
2022/08/07 09:50:19;;;;;;;1.83;0.65;;;;;;;;;;5035252;28;20213;-79
2022/08/07 09:52:48;;;;;;;1.48;0.70;;;;;;;;;;5033853;28;20227;-79
2022/08/07 09:55:17;;;;;;;0.75;0.50;;;;;;;;;;5033483;28;20694;-79
2022/08/07 09:57:59;;;;;;;1.55;0.40;;;;;;;;;;5033281;28;20718;-79
2022/08/07 10:00:31;;;;;;;0.90;0.68;;;;;;;;;;5035041;28;20234;-79
2022/08/07 10:03:19;;;;;;;0.75;0.50;;;;;;;;;;5035669;28;20258;-78
2022/08/07 10:06:01;;;;;;;0.77;0.50;;;;;;;;;;5028003;28;20222;-79
2022/08/07 10:08:43;;;;;;;1.95;0.80;;;;;;;;;;5034423;28;20230;-79
2022/08/07 10:11:14;;;;;;;0.75;0.30;;;;;;;;;;5031036;28;20249;-79
2022/08/07 10:13:51;;;;;;;1.08;0.50;;;;;;;;;;5032039;28;20267;-79
2022/08/07 10:16:38;;;;;;;0.50;0.50;;;;;;;;;;5014459;28;20207;-78
2022/08/07 10:19:18;;;;;;;0.68;0.57;;;;;;;;;;5015988;28;20230;-79
2022/08/07 10:21:49;;;;;;;1.13;0.57;;;;;;;;;;5034042;28;20265;-80
2022/08/07 10:24:30;;;;;;;1.17;0.50;;;;;;;;;;5034503;28;20214;-79
2022/08/07 10:27:04;;;;;;;2.45;0.68;;;;;;;;;;5028517;28;20239;-80
2022/08/07 10:29:43;;;;;;;2.38;0.40;;;;;;;;;;5022267;28;20218;-78
2022/08/07 10:32:28;;;;;;;1.05;0.50;;;;;;;;;;5013814;28;20602;-78
2022/08/07 10:35:06;;;;;;;0.55;0.55;;;;;;;;;;5014275;28;20211;-78
2022/08/07 10:37:44;;;;;;;2.75;0.68;;;;;;;;;;5012573;28;20231;-79
2022/08/07 10:40:12;;;;;;;1.85;0.50;;;;;;;;;;5013374;28;20221;-78
2022/08/07 10:42:41;;;;;;;2.08;0.60;;;;;;;;;;5012746;28;20246;-79
2022/08/07 10:45:19;;;;;;;0.50;0.40;;;;;;;;;;5012697;28;20581;-78
2022/08/07 10:47:50;;;;;;;0.30;0.30;;;;;;;;;;5014044;28;20289;-78
2022/08/07 10:50:20;;;;;;;2.03;0.40;;;;;;;;;;5023464;28;20194;-79
2022/08/07 10:53:08;;;;;;;0.77;0.55;;;;;;;;;;5025597;28;20227;-78
2022/08/07 10:55:42;;;;;;;0.30;0.30;;;;;;;;;;5032558;28;20233;-79
2022/08/07 10:58:16;;;;;;;0.25;0.25;;;;;;;;;;5033382;28;20227;-79
2022/08/07 11:00:51;;;;;;;0.80;0.40;;;;;;;;;;5029313;28;20230;-78
2022/08/07 11:03:23;;;;;;;0.75;0.35;;;;;;;;;;5020033;28;20253;-79
2022/08/07 11:05:55;;;;;;;1.55;0.50;;;;;;;;;;5027279;28;20210;-79
2022/08/07 11:08:30;;;;;;;1.10;0.60;;;;;;;;;;5024825;28;20250;-80
2022/08/07 11:10:59;;;;;;;0.38;0.38;;;;;;;;;;5034018;28;20224;-80
2022/08/07 11:13:31;;;;;;;0.80;0.40;;;;;;;;;;5024961;28;20231;-80
2022/08/07 11:16:03;;;;;;;0.63;0.30;;;;;;;;;;5015072;28;20671;-80
2022/08/07 11:18:34;;;;;;;0.57;0.43;;;;;;;;;;5013825;28;20231;-79
2022/08/07 11:21:04;;;;;;;0.65;0.47;;;;;;;;;;5035263;28;20229;-79
2022/08/07 11:23:37;;;;;;;2.25;0.40;;;;;;;;;;5027438;28;20324;-79
2022/08/07 11:26:08;;;;;;;1.10;0.60;;;;;;;;;;5041232;28;20237;-79
2022/08/07 11:28:37;;;;;;;0.30;0.30;;;;;;;;;;5039870;28;20240;-80
2022/08/07 11:31:08;;;;;;;0.40;0.40;;;;;;;;;;5028628;28;20226;-80
2022/08/07 11:33:44;;;;;;;1.05;0.50;;;;;;;;;;5033376;28;20687;-80
2022/08/07 11:36:31;;;;;;;0.52;0.50;;;;;;;;;;5027907;28;20229;-79
2022/08/07 11:39:04;;;;;;;1.80;0.30;;;;;;;;;;5021586;28;20233;-78
2022/08/07 11:41:35;;;;;;;0.30;0.22;;;;;;;;;;5019256;28;20226;-78
2022/08/07 11:44:09;;;;;;;0.68;0.60;;;;;;;;;;5024307;28;20226;-77
2022/08/07 11:46:41;;;;;;;1.17;0.52;;;;;;;;;;5028366;28;20848;-79
2022/08/07 11:49:15;;;;;;;0.43;0.43;;;;;;;;;;5021440;28;20210;-79
2022/08/07 11:51:47;;;;;;;1.38;0.40;;;;;;;;;;5020763;28;20218;-78
2022/08/07 11:54:20;;;;;;;0.30;0.30;;;;;;;;;;5025161;28;20264;-78
2022/08/07 11:56:54;;;;;;;0.68;0.43;;;;;;;;;;5021674;28;20199;-78
2022/08/07 11:59:33;;;;;;;0.28;0.28;;;;;;;;;;5020698;28;20199;-78
2022/08/07 12:02:03;;;;;;;0.40;0.35;;;;;;;;;;5037959;28;20233;-78
2022/08/07 12:04:39;;;;;;;0.28;0.20;;;;;;;;;;5043413;28;20605;-78
2022/08/07 12:07:10;;;;;;;0.80;0.40;;;;;;;;;;5040519;28;20252;-78
2022/08/07 12:09:42;;;;;;;0.32;0.32;;;;;;;;;;5048212;28;20213;-78
2022/08/07 12:12:10;;;;;;;0.50;0.50;;;;;;;;;;5048032;28;20237;-78
2022/08/07 12:14:43;;;;;;;0.98;0.35;;;;;;;;;;5031247;28;20886;-78
2022/08/07 12:17:11;;;;;;;0.80;0.57;;;;;;;;;;5031780;28;20636;-78
2022/08/07 12:19:45;;;;;;;0.95;0.45;;;;;;;;;;5032499;28;20217;-79
2022/08/07 12:22:15;;;;;;;0.75;0.40;;;;;;;;;;5031954;28;20241;-80
2022/08/07 12:27:30;;;;;;;0.40;0.40;;;;;;;;;;5045185;28;20305;-80
2022/08/07 12:30:02;;;;;;;1.02;0.40;;;;;;;;;;5042701;28;20584;-79
2022/08/07 12:32:31;;;;;;;0.52;0.45;;;;;;;;;;5063174;28;20225;-79
2022/08/07 12:35:00;;;;;;;0.40;0.40;;;;;;;;;;5049859;28;20212;-79
2022/08/07 12:37:28;;;;;;;0.30;0.30;;;;;;;;;;5069146;28;20700;-79
2022/08/07 12:39:58;;;;;;;0.77;0.50;;;;;;;;;;5045111;28;20203;-80
2022/08/07 12:42:26;;;;;;;3.60;0.40;;;;;;;;;;5056497;28;20721;-78
2022/08/07 12:44:54;;;;;;;0.40;0.40;;;;;;;;;;5063452;28;20215;-77
2022/08/07 12:47:25;;;;;;;0.57;0.57;;;;;;;;;;5049597;28;20226;-77
2022/08/07 12:49:57;;;;;;;1.05;0.50;;;;;;;;;;5053592;28;20202;-77
2022/08/07 12:52:29;;;;;;;1.52;0.40;;;;;;;;;;5049359;28;20253;-77
2022/08/07 12:55:01;;;;;;;0.57;0.40;;;;;;;;;;5055937;28;20678;-78
2022/08/07 12:57:31;;;;;;;2.15;0.40;;;;;;;;;;5047616;28;20308;-77
2022/08/07 12:59:59;;;;;;;0.63;0.40;;;;;;;;;;5059276;28;20198;-77
2022/08/07 13:02:47;;;;;;;0.40;0.40;;;;;;;;;;5053320;28;20233;-78
2022/08/07 13:05:19;;;;;;;0.35;0.35;;;;;;;;;;5048262;28;20703;-77
2022/08/07 13:08:01;;;;;;;0.50;0.50;;;;;;;;;;5047508;28;20241;-78
2022/08/07 13:10:37;;;;;;;0.50;0.50;;;;;;;;;;5028728;28;20268;-78
2022/08/07 13:13:10;;;;;;;1.00;0.50;;;;;;;;;;5031850;28;20638;-78
2022/08/07 13:15:43;;;;;;;0.50;0.50;;;;;;;;;;5033770;28;20220;-78
2022/08/07 13:18:16;;;;;;;0.63;0.45;;;;;;;;;;5033588;28;20721;-77
2022/08/07 13:20:49;;;;;;;0.47;0.47;;;;;;;;;;5034339;28;20226;-78
2022/08/07 13:23:18;;;;;;;0.88;0.40;;;;;;;;;;5033096;28;20229;-78
2022/08/07 13:25:49;;;;;;;0.68;0.50;;;;;;;;;;5020666;28;20587;-78
2022/08/07 13:28:18;;;;;;;1.10;0.60;;;;;;;;;;5032831;28;20246;-78
2022/08/07 13:30:50;;;;;;;0.70;0.52;;;;;;;;;;5025547;28;20827;-78
2022/08/07 13:33:22;;;;;;;0.40;0.40;;;;;;;;;;5033900;28;20230;-82
2022/08/07 13:35:53;;;;;;;0.30;0.30;;;;;;;;;;5036608;28;20319;-82
2022/08/07 13:38:25;;;;;;;0.30;0.30;;;;;;;;;;5037111;28;20269;-82
2022/08/07 13:40:57;;;;;;;1.40;0.40;;;;;;;;;;5035570;28;20313;-82
2022/08/07 13:43:25;;;;;;;0.40;0.40;;;;;;;;;;5035315;28;20233;-81
2022/08/07 13:45:54;;;;;;;0.47;0.22;;;;;;;;;;5033779;28;20202;-82
2022/08/07 13:48:23;;;;;;;0.28;0.20;;;;;;;;;;5025546;28;20710;-81
2022/08/07 13:50:51;;;;;;;0.55;0.55;;;;;;;;;;5033507;28;20225;-82
2022/08/07 13:53:20;;;;;;;1.60;0.70;;;;;;;;;;5014638;28;20230;-83
2022/08/07 13:55:47;;;;;;;0.30;0.30;;;;;;;;;;5014000;28;20210;-82
2022/08/07 14:01:10;;;;;;;0.88;0.60;;;;;;;;;;5016074;28;20249;-82
2022/08/07 14:03:39;;;;;;;0.75;0.52;;;;;;;;;;5068894;22;20229;-86
2022/08/07 14:06:07;;;;;;;0.43;0.30;;;;;;;;;;5070641;28;20198;-86
2022/08/07 14:08:35;;;;;;;0.50;0.40;;;;;;;;;;5072408;28;20231;-87
2022/08/07 14:11:06;;;;;;;0.52;0.40;;;;;;;;;;5073545;28;20209;-88
2022/08/07 14:13:35;;;;;;;1.80;0.73;;;;;;;;;;5072591;28;20237;-88
2022/08/07 14:16:03;;;;;;;0.88;0.32;;;;;;;;;;5073517;28;20205;-88
2022/08/07 14:18:32;;;;;;;0.75;0.55;;;;;;;;;;5090055;28;20233;-90
2022/08/07 14:21:11;;;;;;;0.40;0.40;;;;;;;;;;5096074;28;20208;-89
2022/08/07 14:23:39;;;;;;;0.88;0.52;;;;;;;;;;5092985;28;20232;-89
2022/08/07 14:26:08;;;;;;;0.30;0.30;;;;;;;;;;5074756;28;20683;-88
2022/08/07 14:28:37;;;;;;;1.00;0.77;;;;;;;;;;5065534;28;20233;-86
2022/08/07 14:31:05;;;;;;;1.27;0.65;;;;;;;;;;5077202;28;20205;-88
2022/08/07 14:33:33;;;;;;;0.93;0.60;;;;;;;;;;5089738;28;20269;-88
2022/08/07 14:36:01;;;;;;;1.00;0.60;;;;;;;;;;5072758;28;20209;-88
2022/08/07 14:38:29;;;;;;;0.70;0.35;;;;;;;;;;5073325;28;20236;-88
2022/08/07 14:40:57;;;;;;;1.25;0.85;;;;;;;;;;5073777;28;20212;-88
2022/08/07 14:43:24;;;;;;;0.50;0.50;;;;;;;;;;5072919;28;20285;-88
2022/08/07 14:45:54;;;;;;;0.85;0.40;;;;;;;;;;5086215;28;20250;-87
2022/08/07 14:48:22;;;;;;;0.88;0.30;;;;;;;;;;5092459;28;20258;-87
2022/08/07 14:50:51;;;;;;;2.25;0.55;;;;;;;;;;5106186;28;20201;-88
2022/08/07 14:53:19;;;;;;;2.65;0.90;;;;;;;;;;5115436;28;20240;-87
2022/08/07 14:55:47;;;;;;;0.30;0.30;;;;;;;;;;5096766;28;20197;-87
2022/08/07 14:58:15;;;;;;;0.32;0.32;;;;;;;;;;5094776;28;20233;-88
2022/08/07 15:00:44;;;;;;;0.30;0.30;;;;;;;;;;5095301;28;20200;-88
2022/08/07 15:03:12;;;;;;;0.45;0.30;;;;;;;;;;5083676;28;20232;-86
2022/08/07 15:05:40;;;;;;;0.65;0.45;;;;;;;;;;5073171;28;20236;-86
2022/08/07 15:08:08;;;;;;;2.17;0.75;;;;;;;;;;5073065;28;20286;-87
2022/08/07 15:10:36;;;;;;;2.75;0.52;;;;;;;;;;5073018;28;20205;-88